Hesitation/Loss of Power - Page 2 - Focus Fanatics
Ford Focus Forum
HomeContact UsAbout UsGalleryDiscussion ForumsMarketplace


Go Back   Focus Fanatics > Ford Focus Tech Discussions > General Technical Chat

General Technical Chat This section is for technical discussions relating to general maintenance, electrical issues, engine trouble, and recalls.

Search This Forum | Image Search | Advanced Search    
Ford Focus Tire & Wheels FocusFanatics Merchandise

Reply
 
Thread Tools Display Modes
Old 02-25-2009, 01:30 PM   #11
lindleypoolman
Focus Rookie
 
Join Date: Feb 2009
Fan#: 62924
Location: Doncaster
What I Drive: 2001 Blue Focus CL

Posts: 10
FF Reputation: 1 lindleypoolman Good Standing Member
Buy-Sell-Trade Rating: (0)
Ok, I have bought a ELM327 scan tool. Waiting for it to be delivered. Will post results when I have them.

Last edited by lindleypoolman; 02-26-2009 at 02:32 AM. Reason: spelling
lindleypoolman is offline  
    Reply With Quote
Sponsored Links
Advertisement
 
Old 02-27-2009, 01:06 AM   #12
lindleypoolman
Focus Rookie
 
Join Date: Feb 2009
Fan#: 62924
Location: Doncaster
What I Drive: 2001 Blue Focus CL

Posts: 10
FF Reputation: 1 lindleypoolman Good Standing Member
Buy-Sell-Trade Rating: (0)
Hello again guys. Here's the live data readings I got from the scanner. I took the car through about four cycles of acceleration, the hesitation occurred each time.

02-27-2009 11:09:47.312, Fuel System 1 Status, Closed Loop: Using oxygen sensor(s) as feedback for fuel control., OL/CL, CL, OL/CL
02-27-2009 11:09:47.328, Fuel System 2 Status, , OL/CL, , OL/CL
02-27-2009 11:09:47.515, Calculated Load Value, 25.1, %, 25.1, %
02-27-2009 11:09:47.703, Engine Coolant Temperature, 208.4, deg F, 98, deg C
02-27-2009 11:09:47.906, Short Term Fuel Trim (Bank 1), 0.78125, %, 0.78125, %
02-27-2009 11:09:48.093, Long Term Fuel Trim (Bank 1), 3.90625, %, 3.90625, %
02-27-2009 11:09:48.296, Intake Manifold Absolute Pressure, 4.49275362318841, psi, 31, kPa
02-27-2009 11:09:48.484, Engine RPM, 793.5, rpm, 793.5, rpm
02-27-2009 11:09:48.640, Vehicle Speed Sensor, 0, mph, 0, km/h
02-27-2009 11:09:48.765, Ignition Timing Advance for #1 Cylinder, 10, deg, 10, deg
02-27-2009 11:09:48.890, Intake Air Temperature, 62.6, deg F, 17, deg C
02-27-2009 11:09:49.031, Absolute Throttle Position, 21.1764705882353, %, 21.1764705882353, %
02-27-2009 11:09:49.156, Oxygen Sensor Output Voltage (Bank 1, Sensor 1), 0.635, V, 0.635, V
02-27-2009 11:09:49.156, Short Term Fuel Trim (Bank 1, Sensor 1), 1.5625, %, 1.5625, %
02-27-2009 11:09:49.281, Oxygen Sensor Output Voltage (Bank 1, Sensor 2), 0.25, V, 0.25, V
02-27-2009 11:09:49.281, Short Term Fuel Trim (Bank 1, Sensor 2), NOT USED, %, NOT USED, %
02-27-2009 11:09:49.484, Distance Traveled While MIL is Activated, , miles, , km
02-27-2009 11:09:49.687, Fuel System 1 Status, Closed Loop: Using oxygen sensor(s) as feedback for fuel control., OL/CL, CL, OL/CL
02-27-2009 11:09:49.687, Fuel System 2 Status, , OL/CL, , OL/CL
02-27-2009 11:09:49.875, Calculated Load Value, 26.27, %, 26.27, %
02-27-2009 11:09:50.062, Engine Coolant Temperature, 208.4, deg F, 98, deg C
02-27-2009 11:09:50.187, Short Term Fuel Trim (Bank 1), -0.78125, %, -0.78125, %
02-27-2009 11:09:50.343, Long Term Fuel Trim (Bank 1), 3.90625, %, 3.90625, %
02-27-2009 11:09:50.531, Intake Manifold Absolute Pressure, 4.63768115942029, psi, 32, kPa
02-27-2009 11:09:50.718, Engine RPM, 810.75, rpm, 810.75, rpm
02-27-2009 11:09:50.906, Vehicle Speed Sensor, 0, mph, 0, km/h
02-27-2009 11:09:51.109, Ignition Timing Advance for #1 Cylinder, 12.5, deg, 12.5, deg
02-27-2009 11:09:51.296, Intake Air Temperature, 62.6, deg F, 17, deg C
02-27-2009 11:09:51.484, Absolute Throttle Position, 21.1764705882353, %, 21.1764705882353, %
02-27-2009 11:09:51.609, Oxygen Sensor Output Voltage (Bank 1, Sensor 1), 0.33, V, 0.33, V
02-27-2009 11:09:51.625, Short Term Fuel Trim (Bank 1, Sensor 1), 0, %, 0, %
02-27-2009 11:09:51.812, Oxygen Sensor Output Voltage (Bank 1, Sensor 2), 0.285, V, 0.285, V
02-27-2009 11:09:51.812, Short Term Fuel Trim (Bank 1, Sensor 2), NOT USED, %, NOT USED, %
02-27-2009 11:09:52.000, Distance Traveled While MIL is Activated, , miles, , km
02-27-2009 11:09:52.125, Fuel System 1 Status, Closed Loop: Using oxygen sensor(s) as feedback for fuel control., OL/CL, CL, OL/CL
02-27-2009 11:09:52.140, Fuel System 2 Status, , OL/CL, , OL/CL
02-27-2009 11:09:52.250, Calculated Load Value, 27.45, %, 27.45, %
02-27-2009 11:09:52.531, Engine Coolant Temperature, 208.4, deg F, 98, deg C
02-27-2009 11:09:52.718, Short Term Fuel Trim (Bank 1), 0.78125, %, 0.78125, %
02-27-2009 11:09:52.890, Long Term Fuel Trim (Bank 1), 3.90625, %, 3.90625, %
02-27-2009 11:09:53.046, Intake Manifold Absolute Pressure, 4.63768115942029, psi, 32, kPa
02-27-2009 11:09:53.250, Engine RPM, 810.75, rpm, 810.75, rpm
02-27-2009 11:09:53.437, Vehicle Speed Sensor, 0, mph, 0, km/h
02-27-2009 11:09:53.625, Ignition Timing Advance for #1 Cylinder, 11.5, deg, 11.5, deg
02-27-2009 11:09:53.828, Intake Air Temperature, 62.6, deg F, 17, deg C
02-27-2009 11:09:54.015, Absolute Throttle Position, 21.1764705882353, %, 21.1764705882353, %
02-27-2009 11:09:54.203, Oxygen Sensor Output Voltage (Bank 1, Sensor 1), 0.81, V, 0.81, V
02-27-2009 11:09:54.218, Short Term Fuel Trim (Bank 1, Sensor 1), -1.5625, %, -1.5625, %
02-27-2009 11:09:54.406, Oxygen Sensor Output Voltage (Bank 1, Sensor 2), 0.375, V, 0.375, V
02-27-2009 11:09:54.406, Short Term Fuel Trim (Bank 1, Sensor 2), NOT USED, %, NOT USED, %
02-27-2009 11:09:54.593, Distance Traveled While MIL is Activated, , miles, , km
02-27-2009 11:09:54.718, Fuel System 1 Status, Closed Loop: Using oxygen sensor(s) as feedback for fuel control., OL/CL, CL, OL/CL
02-27-2009 11:09:54.718, Fuel System 2 Status, , OL/CL, , OL/CL
02-27-2009 11:09:54.906, Calculated Load Value, 27.45, %, 27.45, %
02-27-2009 11:09:55.109, Engine Coolant Temperature, 208.4, deg F, 98, deg C
02-27-2009 11:09:55.296, Short Term Fuel Trim (Bank 1), 0, %, 0, %
02-27-2009 11:09:55.421, Long Term Fuel Trim (Bank 1), 3.90625, %, 3.90625, %
02-27-2009 11:09:55.562, Intake Manifold Absolute Pressure, 4.63768115942029, psi, 32, kPa
02-27-2009 11:09:55.765, Engine RPM, 814.5, rpm, 814.5, rpm
02-27-2009 11:09:55.953, Vehicle Speed Sensor, 0, mph, 0, km/h
02-27-2009 11:09:56.140, Ignition Timing Advance for #1 Cylinder, 11.5, deg, 11.5, deg
02-27-2009 11:09:56.328, Intake Air Temperature, 62.6, deg F, 17, deg C
02-27-2009 11:09:56.531, Absolute Throttle Position, 21.1764705882353, %, 21.1764705882353, %
02-27-2009 11:09:56.703, Oxygen Sensor Output Voltage (Bank 1, Sensor 1), 0.725, V, 0.725, V
02-27-2009 11:09:56.703, Short Term Fuel Trim (Bank 1, Sensor 1), 0.78125, %, 0.78125, %
02-27-2009 11:09:56.828, Oxygen Sensor Output Voltage (Bank 1, Sensor 2), 0.29, V, 0.29, V
02-27-2009 11:09:56.828, Short Term Fuel Trim (Bank 1, Sensor 2), NOT USED, %, NOT USED, %
02-27-2009 11:09:56.984, Distance Traveled While MIL is Activated, , miles, , km
02-27-2009 11:09:57.171, Fuel System 1 Status, Closed Loop: Using oxygen sensor(s) as feedback for fuel control., OL/CL, CL, OL/CL
02-27-2009 11:09:57.171, Fuel System 2 Status, , OL/CL, , OL/CL
02-27-2009 11:09:57.312, Calculated Load Value, 27.06, %, 27.06, %
02-27-2009 11:09:57.484, Engine Coolant Temperature, 208.4, deg F, 98, deg C
02-27-2009 11:09:57.625, Short Term Fuel Trim (Bank 1), -1.5625, %, -1.5625, %
02-27-2009 11:09:57.828, Long Term Fuel Trim (Bank 1), 3.90625, %, 3.90625, %
02-27-2009 11:09:58.015, Intake Manifold Absolute Pressure, 4.63768115942029, psi, 32, kPa
02-27-2009 11:09:58.203, Engine RPM, 796.75, rpm, 796.75, rpm
02-27-2009 11:09:58.406, Vehicle Speed Sensor, 0, mph, 0, km/h
02-27-2009 11:09:58.609, Ignition Timing Advance for #1 Cylinder, 11.5, deg, 11.5, deg
02-27-2009 11:09:58.796, Intake Air Temperature, 64.4, deg F, 18, deg C
02-27-2009 11:09:58.968, Absolute Throttle Position, 21.1764705882353, %, 21.1764705882353, %
02-27-2009 11:09:59.125, Oxygen Sensor Output Voltage (Bank 1, Sensor 1), 0.16, V, 0.16, V
02-27-2009 11:09:59.125, Short Term Fuel Trim (Bank 1, Sensor 1), 0.78125, %, 0.78125, %
02-27-2009 11:09:59.312, Oxygen Sensor Output Voltage (Bank 1, Sensor 2), 0.215, V, 0.215, V
02-27-2009 11:09:59.312, Short Term Fuel Trim (Bank 1, Sensor 2), NOT USED, %, NOT USED, %
02-27-2009 11:09:59.500, Distance Traveled While MIL is Activated, , miles, , km
02-27-2009 11:09:59.687, Fuel System 1 Status, Closed Loop: Using oxygen sensor(s) as feedback for fuel control., OL/CL, CL, OL/CL
02-27-2009 11:09:59.703, Fuel System 2 Status, , OL/CL, , OL/CL
02-27-2009 11:09:59.890, Calculated Load Value, 26.27, %, 26.27, %
02-27-2009 11:10:00.078, Engine Coolant Temperature, 208.4, deg F, 98, deg C
02-27-2009 11:10:00.265, Short Term Fuel Trim (Bank 1), -0.78125, %, -0.78125, %
02-27-2009 11:10:00.468, Long Term Fuel Trim (Bank 1), 3.90625, %, 3.90625, %
02-27-2009 11:10:00.640, Intake Manifold Absolute Pressure, 4.78260869565217, psi, 33, kPa
02-27-2009 11:10:00.796, Engine RPM, 810.75, rpm, 810.75, rpm
02-27-2009 11:10:00.984, Vehicle Speed Sensor, 0, mph, 0, km/h
02-27-2009 11:10:01.187, Ignition Timing Advance for #1 Cylinder, 10, deg, 10, deg
02-27-2009 11:10:01.375, Intake Air Temperature, 64.4, deg F, 18, deg C
02-27-2009 11:10:01.562, Absolute Throttle Position, 21.1764705882353, %, 21.1764705882353, %
02-27-2009 11:10:01.750, Oxygen Sensor Output Voltage (Bank 1, Sensor 1), 0.56, V, 0.56, V
02-27-2009 11:10:01.765, Short Term Fuel Trim (Bank 1, Sensor 1), -1.5625, %, -1.5625, %
02-27-2009 11:10:01.953, Oxygen Sensor Output Voltage (Bank 1, Sensor 2), 0.22, V, 0.22, V
02-27-2009 11:10:01.953, Short Term Fuel Trim (Bank 1, Sensor 2), NOT USED, %, NOT USED, %
02-27-2009 11:10:02.156, Distance Traveled While MIL is Activated, , miles, , km
02-27-2009 11:10:02.343, Fuel System 1 Status, Closed Loop: Using oxygen sensor(s) as feedback for fuel control., OL/CL, CL, OL/CL
02-27-2009 11:10:02.359, Fuel System 2 Status, , OL/CL, , OL/CL
02-27-2009 11:10:02.531, Calculated Load Value, 23.53, %, 23.53, %
02-27-2009 11:10:02.671, Engine Coolant Temperature, 208.4, deg F, 98, deg C
02-27-2009 11:10:02.859, Short Term Fuel Trim (Bank 1), 0.78125, %, 0.78125, %
02-27-2009 11:10:03.000, Long Term Fuel Trim (Bank 1), 3.90625, %, 3.90625, %
02-27-2009 11:10:03.187, Intake Manifold Absolute Pressure, 4.34782608695652, psi, 30, kPa
02-27-2009 11:10:03.328, Engine RPM, 817.25, rpm, 817.25, rpm
02-27-2009 11:10:03.515, Vehicle Speed Sensor, 0, mph, 0, km/h
02-27-2009 11:10:03.703, Ignition Timing Advance for #1 Cylinder, 6, deg, 6, deg
02-27-2009 11:10:03.921, Intake Air Temperature, 64.4, deg F, 18, deg C
02-27-2009 11:10:04.109, Absolute Throttle Position, 21.1764705882353, %, 21.1764705882353, %
02-27-2009 11:10:04.296, Oxygen Sensor Output Voltage (Bank 1, Sensor 1), 0.845, V, 0.845, V
02-27-2009 11:10:04.312, Short Term Fuel Trim (Bank 1, Sensor 1), -1.5625, %, -1.5625, %
02-27-2009 11:10:04.500, Oxygen Sensor Output Voltage (Bank 1, Sensor 2), 0.26, V, 0.26, V
02-27-2009 11:10:04.500, Short Term Fuel Trim (Bank 1, Sensor 2), NOT USED, %, NOT USED, %
02-27-2009 11:10:04.687, Distance Traveled While MIL is Activated, , miles, , km
02-27-2009 11:10:04.890, Fuel System 1 Status, Closed Loop: Using oxygen sensor(s) as feedback for fuel control., OL/CL, CL, OL/CL
02-27-2009 11:10:04.890, Fuel System 2 Status, , OL/CL, , OL/CL
02-27-2009 11:10:05.078, Calculated Load Value, 57.65, %, 57.65, %
02-27-2009 11:10:05.281, Engine Coolant Temperature, 208.4, deg F, 98, deg C
02-27-2009 11:10:05.468, Short Term Fuel Trim (Bank 1), -3.125, %, -3.125, %
02-27-2009 11:10:05.671, Long Term Fuel Trim (Bank 1), 0.78125, %, 0.78125, %
02-27-2009 11:10:05.859, Intake Manifold Absolute Pressure, 7.53623188405797, psi, 52, kPa
02-27-2009 11:10:06.046, Engine RPM, 1477.5, rpm, 1477.5, rpm
02-27-2009 11:10:06.250, Vehicle Speed Sensor, 1.875, mph, 3, km/h
02-27-2009 11:10:06.437, Ignition Timing Advance for #1 Cylinder, 25.5, deg, 25.5, deg
02-27-2009 11:10:06.625, Intake Air Temperature, 64.4, deg F, 18, deg C
02-27-2009 11:10:06.828, Absolute Throttle Position, 36.8627450980392, %, 36.8627450980392, %
02-27-2009 11:10:07.015, Oxygen Sensor Output Voltage (Bank 1, Sensor 1), 0.06, V, 0.06, V
02-27-2009 11:10:07.031, Short Term Fuel Trim (Bank 1, Sensor 1), 1.5625, %, 1.5625, %
02-27-2009 11:10:07.218, Oxygen Sensor Output Voltage (Bank 1, Sensor 2), 0.055, V, 0.055, V
02-27-2009 11:10:07.218, Short Term Fuel Trim (Bank 1, Sensor 2), NOT USED, %, NOT USED, %
02-27-2009 11:10:07.421, Distance Traveled While MIL is Activated, , miles, , km
02-27-2009 11:10:07.609, Fuel System 1 Status, Closed Loop: Using oxygen sensor(s) as feedback for fuel control., OL/CL, CL, OL/CL
02-27-2009 11:10:07.609, Fuel System 2 Status, , OL/CL, , OL/CL
02-27-2009 11:10:07.781, Calculated Load Value, 65.88, %, 65.88, %
02-27-2009 11:10:08.000, Engine Coolant Temperature, 208.4, deg F, 98, deg C
02-27-2009 11:10:08.187, Short Term Fuel Trim (Bank 1), 4.6875, %, 4.6875, %
02-27-2009 11:10:08.375, Long Term Fuel Trim (Bank 1), -2.34375, %, -2.34375, %
02-27-2009 11:10:08.515, Intake Manifold Absolute Pressure, 4.05797101449275, psi, 28, kPa
02-27-2009 11:10:08.734, Engine RPM, 1839, rpm, 1839, rpm
02-27-2009 11:10:08.921, Vehicle Speed Sensor, 7.5, mph, 12, km/h
02-27-2009 11:10:09.109, Ignition Timing Advance for #1 Cylinder, 12, deg, 12, deg
02-27-2009 11:10:09.312, Intake Air Temperature, 64.4, deg F, 18, deg C
02-27-2009 11:10:09.484, Absolute Throttle Position, 34.1176470588235, %, 34.1176470588235, %
02-27-2009 11:10:09.640, Oxygen Sensor Output Voltage (Bank 1, Sensor 1), 0.705, V, 0.705, V
02-27-2009 11:10:09.640, Short Term Fuel Trim (Bank 1, Sensor 1), 3.90625, %, 3.90625, %
02-27-2009 11:10:09.828, Oxygen Sensor Output Voltage (Bank 1, Sensor 2), 0.23, V, 0.23, V
02-27-2009 11:10:09.843, Short Term Fuel Trim (Bank 1, Sensor 2), NOT USED, %, NOT USED, %
02-27-2009 11:10:10.031, Distance Traveled While MIL is Activated, , miles, , km
02-27-2009 11:10:10.218, Fuel System 1 Status, Closed Loop: Using oxygen sensor(s) as feedback for fuel control., OL/CL, CL, OL/CL
02-27-2009 11:10:10.218, Fuel System 2 Status, , OL/CL, , OL/CL
02-27-2009 11:10:10.406, Calculated Load Value, 65.1, %, 65.1, %
02-27-2009 11:10:10.625, Engine Coolant Temperature, 208.4, deg F, 98, deg C
02-27-2009 11:10:10.812, Short Term Fuel Trim (Bank 1), -0.78125, %, -0.78125, %
02-27-2009 11:10:11.000, Long Term Fuel Trim (Bank 1), -1.5625, %, -1.5625, %
02-27-2009 11:10:11.171, Intake Manifold Absolute Pressure, 8.11594202898551, psi, 56, kPa
02-27-2009 11:10:11.390, Engine RPM, 1325.5, rpm, 1325.5, rpm
02-27-2009 11:10:11.578, Vehicle Speed Sensor, 10.625, mph, 17, km/h
02-27-2009 11:10:11.781, Ignition Timing Advance for #1 Cylinder, 24.5, deg, 24.5, deg
02-27-2009 11:10:11.984, Intake Air Temperature, 64.4, deg F, 18, deg C
02-27-2009 11:10:12.171, Absolute Throttle Position, 34.9019607843137, %, 34.9019607843137, %
02-27-2009 11:10:12.359, Oxygen Sensor Output Voltage (Bank 1, Sensor 1), 0.265, V, 0.265, V
02-27-2009 11:10:12.375, Short Term Fuel Trim (Bank 1, Sensor 1), 0.78125, %, 0.78125, %
02-27-2009 11:10:12.546, Oxygen Sensor Output Voltage (Bank 1, Sensor 2), 0.795, V, 0.795, V
02-27-2009 11:10:12.562, Short Term Fuel Trim (Bank 1, Sensor 2), NOT USED, %, NOT USED, %
02-27-2009 11:10:12.750, Distance Traveled While MIL is Activated, , miles, , km
02-27-2009 11:10:12.953, Fuel System 1 Status, Closed Loop: Using oxygen sensor(s) as feedback for fuel control., OL/CL, CL, OL/CL
02-27-2009 11:10:12.953, Fuel System 2 Status, , OL/CL, , OL/CL
02-27-2009 11:10:13.140, Calculated Load Value, 58.82, %, 58.82, %
02-27-2009 11:10:13.343, Engine Coolant Temperature, 208.4, deg F, 98, deg C
02-27-2009 11:10:13.531, Short Term Fuel Trim (Bank 1), -2.34375, %, -2.34375, %
02-27-2009 11:10:13.718, Long Term Fuel Trim (Bank 1), -1.5625, %, -1.5625, %
02-27-2009 11:10:13.906, Intake Manifold Absolute Pressure, 3.6231884057971, psi, 25, kPa
02-27-2009 11:10:14.062, Engine RPM, 1632.5, rpm, 1632.5, rpm
02-27-2009 11:10:14.250, Vehicle Speed Sensor, 14.375, mph, 23, km/h
02-27-2009 11:10:14.437, Ignition Timing Advance for #1 Cylinder, 25, deg, 25, deg
02-27-2009 11:10:14.656, Intake Air Temperature, 62.6, deg F, 17, deg C
02-27-2009 11:10:14.843, Absolute Throttle Position, 26.6666666666667, %, 26.6666666666667, %
02-27-2009 11:10:15.031, Oxygen Sensor Output Voltage (Bank 1, Sensor 1), 0.025, V, 0.025, V
02-27-2009 11:10:15.031, Short Term Fuel Trim (Bank 1, Sensor 1), 1.5625, %, 1.5625, %
02-27-2009 11:10:15.218, Oxygen Sensor Output Voltage (Bank 1, Sensor 2), 0.05, V, 0.05, V
02-27-2009 11:10:15.234, Short Term Fuel Trim (Bank 1, Sensor 2), NOT USED, %, NOT USED, %
02-27-2009 11:10:15.421, Distance Traveled While MIL is Activated, , miles, , km
02-27-2009 11:10:15.609, Fuel System 1 Status, Closed Loop: Using oxygen sensor(s) as feedback for fuel control., OL/CL, CL, OL/CL
02-27-2009 11:10:15.609, Fuel System 2 Status, , OL/CL, , OL/CL
02-27-2009 11:10:15.812, Calculated Load Value, 46.67, %, 46.67, %
02-27-2009 11:10:16.015, Engine Coolant Temperature, 208.4, deg F, 98, deg C
02-27-2009 11:10:16.203, Short Term Fuel Trim (Bank 1), 0, %, 0, %
02-27-2009 11:10:16.390, Long Term Fuel Trim (Bank 1), -0.78125, %, -0.78125, %
02-27-2009 11:10:16.578, Intake Manifold Absolute Pressure, 6.52173913043478, psi, 45, kPa
02-27-2009 11:10:16.781, Engine RPM, 1138.75, rpm, 1138.75, rpm
02-27-2009 11:10:16.984, Vehicle Speed Sensor, 15, mph, 24, km/h
02-27-2009 11:10:17.171, Ignition Timing Advance for #1 Cylinder, 7.5, deg, 7.5, deg
02-27-2009 11:10:17.359, Intake Air Temperature, 64.4, deg F, 18, deg C
02-27-2009 11:10:17.546, Absolute Throttle Position, 87.0588235294118, %, 87.0588235294118, %
02-27-2009 11:10:17.687, Oxygen Sensor Output Voltage (Bank 1, Sensor 1), 0.94, V, 0.94, V
02-27-2009 11:10:17.687, Short Term Fuel Trim (Bank 1, Sensor 1), 15.625, %, 15.625, %
02-27-2009 11:10:17.875, Oxygen Sensor Output Voltage (Bank 1, Sensor 2), 0.905, V, 0.905, V
02-27-2009 11:10:17.890, Short Term Fuel Trim (Bank 1, Sensor 2), NOT USED, %, NOT USED, %
02-27-2009 11:10:18.093, Distance Traveled While MIL is Activated, , miles, , km
02-27-2009 11:10:18.281, Fuel System 1 Status, OL-Drive: Open loop due to driving conditions. (e.g., power enrichment, deceleration enleanment), OL/CL, OL-Drive, OL/CL
02-27-2009 11:10:18.281, Fuel System 2 Status, , OL/CL, , OL/CL
02-27-2009 11:10:18.468, Calculated Load Value, 100, %, 100, %
02-27-2009 11:10:18.687, Engine Coolant Temperature, 210.2, deg F, 99, deg C
02-27-2009 11:10:18.859, Short Term Fuel Trim (Bank 1), 13.28125, %, 13.28125, %
02-27-2009 11:10:19.046, Long Term Fuel Trim (Bank 1), 2.34375, %, 2.34375, %
02-27-2009 11:10:19.250, Intake Manifold Absolute Pressure, 4.34782608695652, psi, 30, kPa
02-27-2009 11:10:19.421, Engine RPM, 1350, rpm, 1350, rpm
02-27-2009 11:10:19.578, Vehicle Speed Sensor, 17.5, mph, 28, km/h
02-27-2009 11:10:19.765, Ignition Timing Advance for #1 Cylinder, 7.5, deg, 7.5, deg
02-27-2009 11:10:19.953, Intake Air Temperature, 64.4, deg F, 18, deg C
02-27-2009 11:10:20.140, Absolute Throttle Position, 21.1764705882353, %, 21.1764705882353, %
02-27-2009 11:10:20.281, Oxygen Sensor Output Voltage (Bank 1, Sensor 1), 0.055, V, 0.055, V
02-27-2009 11:10:20.281, Short Term Fuel Trim (Bank 1, Sensor 1), 10.9375, %, 10.9375, %
02-27-2009 11:10:20.468, Oxygen Sensor Output Voltage (Bank 1, Sensor 2), 0.88, V, 0.88, V
02-27-2009 11:10:20.468, Short Term Fuel Trim (Bank 1, Sensor 2), NOT USED, %, NOT USED, %
02-27-2009 11:10:20.640, Distance Traveled While MIL is Activated, , miles, , km
02-27-2009 11:10:20.812, Fuel System 1 Status, Closed Loop: Using oxygen sensor(s) as feedback for fuel control., OL/CL, CL, OL/CL
02-27-2009 11:10:20.812, Fuel System 2 Status, , OL/CL, , OL/CL
02-27-2009 11:10:20.984, Calculated Load Value, 20.39, %, 20.39, %
02-27-2009 11:10:21.187, Engine Coolant Temperature, 210.2, deg F, 99, deg C
02-27-2009 11:10:21.375, Short Term Fuel Trim (Bank 1), 12.5, %, 12.5, %
02-27-2009 11:10:21.578, Long Term Fuel Trim (Bank 1), -7.8125, %, -7.8125, %
02-27-2009 11:10:21.781, Intake Manifold Absolute Pressure, 3.6231884057971, psi, 25, kPa
02-27-2009 11:10:21.968, Engine RPM, 1146.75, rpm, 1146.75, rpm
02-27-2009 11:10:22.171, Vehicle Speed Sensor, 14.375, mph, 23, km/h
02-27-2009 11:10:22.359, Ignition Timing Advance for #1 Cylinder, 25, deg, 25, deg
02-27-2009 11:10:22.546, Intake Air Temperature, 64.4, deg F, 18, deg C
02-27-2009 11:10:22.750, Absolute Throttle Position, 21.1764705882353, %, 21.1764705882353, %
02-27-2009 11:10:22.937, Oxygen Sensor Output Voltage (Bank 1, Sensor 1), 0.795, V, 0.795, V
02-27-2009 11:10:22.937, Short Term Fuel Trim (Bank 1, Sensor 1), 10.15625, %, 10.15625, %
02-27-2009 11:10:23.140, Oxygen Sensor Output Voltage (Bank 1, Sensor 2), 0.175, V, 0.175, V
02-27-2009 11:10:23.140, Short Term Fuel Trim (Bank 1, Sensor 2), NOT USED, %, NOT USED, %
02-27-2009 11:10:23.328, Distance Traveled While MIL is Activated, , miles, , km
02-27-2009 11:10:23.515, Fuel System 1 Status, Closed Loop: Using oxygen sensor(s) as feedback for fuel control., OL/CL, CL, OL/CL
02-27-2009 11:10:23.515, Fuel System 2 Status, , OL/CL, , OL/CL
02-27-2009 11:10:23.718, Calculated Load Value, 18.04, %, 18.04, %
02-27-2009 11:10:23.890, Engine Coolant Temperature, 210.2, deg F, 99, deg C
02-27-2009 11:10:24.109, Short Term Fuel Trim (Bank 1), 8.59375, %, 8.59375, %
02-27-2009 11:10:24.296, Long Term Fuel Trim (Bank 1), -0.78125, %, -0.78125, %
02-27-2009 11:10:24.484, Intake Manifold Absolute Pressure, 14.7826086956522, psi, 102, kPa
02-27-2009 11:10:24.671, Engine RPM, 1014.75, rpm, 1014.75, rpm
02-27-2009 11:10:24.890, Vehicle Speed Sensor, 13.125, mph, 21, km/h
02-27-2009 11:10:25.078, Ignition Timing Advance for #1 Cylinder, -5, deg, -5, deg
02-27-2009 11:10:25.265, Intake Air Temperature, 66.2, deg F, 19, deg C
02-27-2009 11:10:25.468, Absolute Throttle Position, 82.3529411764706, %, 82.3529411764706, %
02-27-2009 11:10:25.656, Oxygen Sensor Output Voltage (Bank 1, Sensor 1), 0.91, V, 0.91, V
02-27-2009 11:10:25.656, Short Term Fuel Trim (Bank 1, Sensor 1), 5.46875, %, 5.46875, %
02-27-2009 11:10:25.859, Oxygen Sensor Output Voltage (Bank 1, Sensor 2), 0.9, V, 0.9, V
02-27-2009 11:10:25.859, Short Term Fuel Trim (Bank 1, Sensor 2), NOT USED, %, NOT USED, %
02-27-2009 11:10:26.031, Distance Traveled While MIL is Activated, , miles, , km
02-27-2009 11:10:26.250, Fuel System 1 Status, Closed Loop: Using oxygen sensor(s) as feedback for fuel control., OL/CL, CL, OL/CL
02-27-2009 11:10:26.250, Fuel System 2 Status, , OL/CL, , OL/CL
02-27-2009 11:10:26.437, Calculated Load Value, 20.39, %, 20.39, %
02-27-2009 11:10:26.640, Engine Coolant Temperature, 212, deg F, 100, deg C
02-27-2009 11:10:26.828, Short Term Fuel Trim (Bank 1), 3.125, %, 3.125, %
02-27-2009 11:10:27.015, Long Term Fuel Trim (Bank 1), -5.46875, %, -5.46875, %
02-27-2009 11:10:27.203, Intake Manifold Absolute Pressure, 3.91304347826087, psi, 27, kPa
02-27-2009 11:10:27.390, Engine RPM, 1222, rpm, 1222, rpm
02-27-2009 11:10:27.593, Vehicle Speed Sensor, 15, mph, 24, km/h
02-27-2009 11:10:27.796, Ignition Timing Advance for #1 Cylinder, 10, deg, 10, deg
02-27-2009 11:10:27.984, Intake Air Temperature, 64.4, deg F, 18, deg C
02-27-2009 11:10:28.187, Absolute Throttle Position, 21.1764705882353, %, 21.1764705882353, %
02-27-2009 11:10:28.375, Oxygen Sensor Output Voltage (Bank 1, Sensor 1), 0.055, V, 0.055, V
02-27-2009 11:10:28.390, Short Term Fuel Trim (Bank 1, Sensor 1), 7.8125, %, 7.8125, %
02-27-2009 11:10:28.562, Oxygen Sensor Output Voltage (Bank 1, Sensor 2), 0.36, V, 0.36, V
02-27-2009 11:10:28.562, Short Term Fuel Trim (Bank 1, Sensor 2), NOT USED, %, NOT USED, %
02-27-2009 11:10:28.765, Distance Traveled While MIL is Activated, , miles, , km
02-27-2009 11:10:28.968, Fuel System 1 Status, Closed Loop: Using oxygen sensor(s) as feedback for fuel control., OL/CL, CL, OL/CL
02-27-2009 11:10:28.968, Fuel System 2 Status, , OL/CL, , OL/CL
02-27-2009 11:10:29.156, Calculated Load Value, 21.96, %, 21.96, %
02-27-2009 11:10:29.343, Engine Coolant Temperature, 212, deg F, 100, deg C
02-27-2009 11:10:29.546, Short Term Fuel Trim (Bank 1), 4.6875, %, 4.6875, %
02-27-2009 11:10:29.734, Long Term Fuel Trim (Bank 1), -9.375, %, -9.375, %
02-27-2009 11:10:29.921, Intake Manifold Absolute Pressure, 4.05797101449275, psi, 28, kPa
02-27-2009 11:10:30.109, Engine RPM, 855.25, rpm, 855.25, rpm
02-27-2009 11:10:30.312, Vehicle Speed Sensor, 10.625, mph, 17, km/h
02-27-2009 11:10:30.500, Ignition Timing Advance for #1 Cylinder, 25, deg, 25, deg
02-27-2009 11:10:30.703, Intake Air Temperature, 64.4, deg F, 18, deg C
02-27-2009 11:10:30.906, Absolute Throttle Position, 21.1764705882353, %, 21.1764705882353, %
02-27-2009 11:10:31.093, Oxygen Sensor Output Voltage (Bank 1, Sensor 1), 0.81, V, 0.81, V
02-27-2009 11:10:31.093, Short Term Fuel Trim (Bank 1, Sensor 1), 3.125, %, 3.125, %
02-27-2009 11:10:31.281, Oxygen Sensor Output Voltage (Bank 1, Sensor 2), 0.56, V, 0.56, V
02-27-2009 11:10:31.296, Short Term Fuel Trim (Bank 1, Sensor 2), NOT USED, %, NOT USED, %
02-27-2009 11:10:31.468, Distance Traveled While MIL is Activated, , miles, , km
02-27-2009 11:10:31.671, Fuel System 1 Status, Closed Loop: Using oxygen sensor(s) as feedback for fuel control., OL/CL, CL, OL/CL
02-27-2009 11:10:31.671, Fuel System 2 Status, , OL/CL, , OL/CL
02-27-2009 11:10:31.859, Calculated Load Value, 31.37, %, 31.37, %
02-27-2009 11:10:32.046, Engine Coolant Temperature, 212, deg F, 100, deg C
02-27-2009 11:10:32.250, Short Term Fuel Trim (Bank 1), 1.5625, %, 1.5625, %
02-27-2009 11:10:32.437, Long Term Fuel Trim (Bank 1), -7.8125, %, -7.8125, %
02-27-2009 11:10:32.640, Intake Manifold Absolute Pressure, 5.36231884057971, psi, 37, kPa
02-27-2009 11:10:32.828, Engine RPM, 705.25, rpm, 705.25, rpm
02-27-2009 11:10:33.031, Vehicle Speed Sensor, 8.75, mph, 14, km/h
02-27-2009 11:10:33.218, Ignition Timing Advance for #1 Cylinder, -11, deg, -11, deg
02-27-2009 11:10:33.406, Intake Air Temperature, 66.2, deg F, 19, deg C
02-27-2009 11:10:33.609, Absolute Throttle Position, 88.2352941176471, %, 88.2352941176471, %
02-27-2009 11:10:33.796, Oxygen Sensor Output Voltage (Bank 1, Sensor 1), 0.975, V, 0.975, V
02-27-2009 11:10:33.796, Short Term Fuel Trim (Bank 1, Sensor 1), 14.0625, %, 14.0625, %
02-27-2009 11:10:33.984, Oxygen Sensor Output Voltage (Bank 1, Sensor 2), 0.96, V, 0.96, V
02-27-2009 11:10:33.984, Short Term Fuel Trim (Bank 1, Sensor 2), NOT USED, %, NOT USED, %
02-27-2009 11:10:34.187, Distance Traveled While MIL is Activated, , miles, , km
02-27-2009 11:10:34.375, Fuel System 1 Status, OL-Drive: Open loop due to driving conditions. (e.g., power enrichment, deceleration enleanment), OL/CL, OL-Drive, OL/CL
02-27-2009 11:10:34.375, Fuel System 2 Status, , OL/CL, , OL/CL
02-27-2009 11:10:34.578, Calculated Load Value, 99.61, %, 99.61, %
02-27-2009 11:10:34.765, Engine Coolant Temperature, 212, deg F, 100, deg C
02-27-2009 11:10:34.937, Short Term Fuel Trim (Bank 1), 14.0625, %, 14.0625, %
02-27-2009 11:10:35.093, Long Term Fuel Trim (Bank 1), -2.34375, %, -2.34375, %
02-27-2009 11:10:35.281, Intake Manifold Absolute Pressure, 15.0724637681159, psi, 104, kPa
02-27-2009 11:10:35.468, Engine RPM, 1069.25, rpm, 1069.25, rpm
02-27-2009 11:10:35.671, Vehicle Speed Sensor, 14.375, mph, 23, km/h
02-27-2009 11:10:35.859, Ignition Timing Advance for #1 Cylinder, -4, deg, -4, deg
02-27-2009 11:10:36.046, Intake Air Temperature, 66.2, deg F, 19, deg C
02-27-2009 11:10:36.265, Absolute Throttle Position, 88.6274509803922, %, 88.6274509803922, %
02-27-2009 11:10:36.453, Oxygen Sensor Output Voltage (Bank 1, Sensor 1), 0.93, V, 0.93, V
02-27-2009 11:10:36.453, Short Term Fuel Trim (Bank 1, Sensor 1), 14.84375, %, 14.84375, %
02-27-2009 11:10:36.640, Oxygen Sensor Output Voltage (Bank 1, Sensor 2), 0.895, V, 0.895, V
02-27-2009 11:10:36.640, Short Term Fuel Trim (Bank 1, Sensor 2), NOT USED, %, NOT USED, %
02-27-2009 11:10:36.828, Distance Traveled While MIL is Activated, , miles, , km
02-27-2009 11:10:37.046, Fuel System 1 Status, OL-Drive: Open loop due to driving conditions. (e.g., power enrichment, deceleration enleanment), OL/CL, OL-Drive, OL/CL
02-27-2009 11:10:37.046, Fuel System 2 Status, , OL/CL, , OL/CL
02-27-2009 11:10:37.234, Calculated Load Value, 100, %, 100, %
02-27-2009 11:10:37.421, Engine Coolant Temperature, 215.6, deg F, 102, deg C
02-27-2009 11:10:37.640, Short Term Fuel Trim (Bank 1), 15.625, %, 15.625, %
02-27-2009 11:10:37.828, Long Term Fuel Trim (Bank 1), -2.34375, %, -2.34375, %
02-27-2009 11:10:38.015, Intake Manifold Absolute Pressure, 14.9275362318841, psi, 103, kPa
02-27-2009 11:10:38.203, Engine RPM, 1601.5, rpm, 1601.5, rpm
02-27-2009 11:10:38.406, Vehicle Speed Sensor, 20.625, mph, 33, km/h
02-27-2009 11:10:38.593, Ignition Timing Advance for #1 Cylinder, 19, deg, 19, deg
02-27-2009 11:10:38.796, Intake Air Temperature, 64.4, deg F, 18, deg C
02-27-2009 11:10:38.984, Absolute Throttle Position, 21.1764705882353, %, 21.1764705882353, %
02-27-2009 11:10:39.187, Oxygen Sensor Output Voltage (Bank 1, Sensor 1), 0.915, V, 0.915, V
02-27-2009 11:10:39.187, Short Term Fuel Trim (Bank 1, Sensor 1), 7.8125, %, 7.8125, %
02-27-2009 11:10:39.375, Oxygen Sensor Output Voltage (Bank 1, Sensor 2), 0.94, V, 0.94, V
02-27-2009 11:10:39.375, Short Term Fuel Trim (Bank 1, Sensor 2), NOT USED, %, NOT USED, %
02-27-2009 11:10:39.562, Distance Traveled While MIL is Activated, , miles, , km
02-27-2009 11:10:39.765, Fuel System 1 Status, Closed Loop: Using oxygen sensor(s) as feedback for fuel control., OL/CL, CL, OL/CL
02-27-2009 11:10:39.765, Fuel System 2 Status, , OL/CL, , OL/CL
02-27-2009 11:10:39.953, Calculated Load Value, 20.78, %, 20.78, %
02-27-2009 11:10:40.140, Engine Coolant Temperature, 215.6, deg F, 102, deg C
02-27-2009 11:10:40.359, Short Term Fuel Trim (Bank 1), 3.125, %, 3.125, %
02-27-2009 11:10:40.546, Long Term Fuel Trim (Bank 1), -6.25, %, -6.25, %
02-27-2009 11:10:40.734, Intake Manifold Absolute Pressure, 3.91304347826087, psi, 27, kPa
02-27-2009 11:10:40.921, Engine RPM, 1163.25, rpm, 1163.25, rpm
02-27-2009 11:10:41.109, Vehicle Speed Sensor, 15, mph, 24, km/h
02-27-2009 11:10:41.250, Ignition Timing Advance for #1 Cylinder, 20, deg, 20, deg
02-27-2009 11:10:41.421, Intake Air Temperature, 64.4, deg F, 18, deg C
02-27-2009 11:10:41.562, Absolute Throttle Position, 21.1764705882353, %, 21.1764705882353, %
02-27-2009 11:10:41.750, Oxygen Sensor Output Voltage (Bank 1, Sensor 1), 0.64, V, 0.64, V
02-27-2009 11:10:41.750, Short Term Fuel Trim (Bank 1, Sensor 1), 3.90625, %, 3.90625, %
02-27-2009 11:10:41.906, Oxygen Sensor Output Voltage (Bank 1, Sensor 2), 0.845, V, 0.845, V
02-27-2009 11:10:41.906, Short Term Fuel Trim (Bank 1, Sensor 2), NOT USED, %, NOT USED, %
02-27-2009 11:10:42.078, Distance Traveled While MIL is Activated, , miles, , km
02-27-2009 11:10:42.203, Fuel System 1 Status, Closed Loop: Using oxygen sensor(s) as feedback for fuel control., OL/CL, CL, OL/CL
02-27-2009 11:10:42.218, Fuel System 2 Status, , OL/CL, , OL/CL
02-27-2009 11:10:42.421, Calculated Load Value, 25.1, %, 25.1, %
02-27-2009 11:10:42.593, Engine Coolant Temperature, 215.6, deg F, 102, deg C
02-27-2009 11:10:42.796, Short Term Fuel Trim (Bank 1), 2.34375, %, 2.34375, %
02-27-2009 11:10:42.984, Long Term Fuel Trim (Bank 1), -9.375, %, -9.375, %
02-27-2009 11:10:43.187, Intake Manifold Absolute Pressure, 5.07246376811594, psi, 35
lindleypoolman is offline  
    Reply With Quote
Old 02-27-2009, 01:07 AM   #13
lindleypoolman
Focus Rookie
 
Join Date: Feb 2009
Fan#: 62924
Location: Doncaster
What I Drive: 2001 Blue Focus CL

Posts: 10
FF Reputation: 1 lindleypoolman Good Standing Member
Buy-Sell-Trade Rating: (0)
02-27-2009 11:10:43.375, Engine RPM, 922.75, rpm, 922.75, rpm
02-27-2009 11:10:43.562, Vehicle Speed Sensor, 11.875, mph, 19, km/h
02-27-2009 11:10:43.765, Ignition Timing Advance for #1 Cylinder, 23.5, deg, 23.5, deg
02-27-2009 11:10:43.953, Intake Air Temperature, 64.4, deg F, 18, deg C
02-27-2009 11:10:44.156, Absolute Throttle Position, 58.4313725490196, %, 58.4313725490196, %
02-27-2009 11:10:44.359, Oxygen Sensor Output Voltage (Bank 1, Sensor 1), 0.705, V, 0.705, V
02-27-2009 11:10:44.359, Short Term Fuel Trim (Bank 1, Sensor 1), 14.84375, %, 14.84375, %
02-27-2009 11:10:44.546, Oxygen Sensor Output Voltage (Bank 1, Sensor 2), 0.85, V, 0.85, V
02-27-2009 11:10:44.546, Short Term Fuel Trim (Bank 1, Sensor 2), NOT USED, %, NOT USED, %
02-27-2009 11:10:44.734, Distance Traveled While MIL is Activated, , miles, , km
02-27-2009 11:10:44.921, Fuel System 1 Status, OL-Drive: Open loop due to driving conditions. (e.g., power enrichment, deceleration enleanment), OL/CL, OL-Drive, OL/CL
02-27-2009 11:10:44.937, Fuel System 2 Status, , OL/CL, , OL/CL
02-27-2009 11:10:45.125, Calculated Load Value, 100, %, 100, %
02-27-2009 11:10:45.296, Engine Coolant Temperature, 215.6, deg F, 102, deg C
02-27-2009 11:10:45.437, Short Term Fuel Trim (Bank 1), 14.84375, %, 14.84375, %
02-27-2009 11:10:45.640, Long Term Fuel Trim (Bank 1), -2.34375, %, -2.34375, %
02-27-2009 11:10:45.828, Intake Manifold Absolute Pressure, 15.0724637681159, psi, 104, kPa
02-27-2009 11:10:46.031, Engine RPM, 1226.75, rpm, 1226.75, rpm
02-27-2009 11:10:46.218, Vehicle Speed Sensor, 15.625, mph, 25, km/h
02-27-2009 11:10:46.421, Ignition Timing Advance for #1 Cylinder, 1.5, deg, 1.5, deg
02-27-2009 11:10:46.609, Intake Air Temperature, 66.2, deg F, 19, deg C
02-27-2009 11:10:46.796, Absolute Throttle Position, 87.843137254902, %, 87.843137254902, %
02-27-2009 11:10:46.984, Oxygen Sensor Output Voltage (Bank 1, Sensor 1), 0.925, V, 0.925, V
02-27-2009 11:10:47.000, Short Term Fuel Trim (Bank 1, Sensor 1), 15.625, %, 15.625, %
02-27-2009 11:10:47.203, Oxygen Sensor Output Voltage (Bank 1, Sensor 2), 0.935, V, 0.935, V
02-27-2009 11:10:47.203, Short Term Fuel Trim (Bank 1, Sensor 2), NOT USED, %, NOT USED, %
02-27-2009 11:10:47.390, Distance Traveled While MIL is Activated, , miles, , km
02-27-2009 11:10:47.578, Fuel System 1 Status, Closed Loop: Using oxygen sensor(s) as feedback for fuel control., OL/CL, CL, OL/CL
02-27-2009 11:10:47.593, Fuel System 2 Status, , OL/CL, , OL/CL
02-27-2009 11:10:47.796, Calculated Load Value, 19.61, %, 19.61, %
02-27-2009 11:10:47.968, Engine Coolant Temperature, 217.4, deg F, 103, deg C
02-27-2009 11:10:48.171, Short Term Fuel Trim (Bank 1), 7.03125, %, 7.03125, %
02-27-2009 11:10:48.359, Long Term Fuel Trim (Bank 1), -3.125, %, -3.125, %
02-27-2009 11:10:48.562, Intake Manifold Absolute Pressure, 3.76811594202899, psi, 26, kPa
02-27-2009 11:10:48.734, Engine RPM, 1401, rpm, 1401, rpm
02-27-2009 11:10:48.875, Vehicle Speed Sensor, 18.125, mph, 29, km/h
02-27-2009 11:10:49.093, Ignition Timing Advance for #1 Cylinder, 7.5, deg, 7.5, deg
02-27-2009 11:10:49.281, Intake Air Temperature, 64.4, deg F, 18, deg C
02-27-2009 11:10:49.468, Absolute Throttle Position, 21.1764705882353, %, 21.1764705882353, %
02-27-2009 11:10:49.656, Oxygen Sensor Output Voltage (Bank 1, Sensor 1), 0.185, V, 0.185, V
02-27-2009 11:10:49.671, Short Term Fuel Trim (Bank 1, Sensor 1), 5.46875, %, 5.46875, %
02-27-2009 11:10:49.859, Oxygen Sensor Output Voltage (Bank 1, Sensor 2), 0.895, V, 0.895, V
02-27-2009 11:10:49.859, Short Term Fuel Trim (Bank 1, Sensor 2), NOT USED, %, NOT USED, %
02-27-2009 11:10:50.046, Distance Traveled While MIL is Activated, , miles, , km
02-27-2009 11:10:50.234, Fuel System 1 Status, Closed Loop: Using oxygen sensor(s) as feedback for fuel control., OL/CL, CL, OL/CL
02-27-2009 11:10:50.234, Fuel System 2 Status, , OL/CL, , OL/CL
02-27-2009 11:10:50.453, Calculated Load Value, 20.39, %, 20.39, %
02-27-2009 11:10:50.640, Engine Coolant Temperature, 217.4, deg F, 103, deg C
02-27-2009 11:10:50.828, Short Term Fuel Trim (Bank 1), 7.03125, %, 7.03125, %
02-27-2009 11:10:51.000, Long Term Fuel Trim (Bank 1), -7.8125, %, -7.8125, %
02-27-2009 11:10:51.156, Intake Manifold Absolute Pressure, 3.91304347826087, psi, 27, kPa
02-27-2009 11:10:51.359, Engine RPM, 1100.75, rpm, 1100.75, rpm
02-27-2009 11:10:51.546, Vehicle Speed Sensor, 13.125, mph, 21, km/h
02-27-2009 11:10:51.734, Ignition Timing Advance for #1 Cylinder, 25, deg, 25, deg
02-27-2009 11:10:51.937, Intake Air Temperature, 64.4, deg F, 18, deg C
02-27-2009 11:10:52.125, Absolute Throttle Position, 21.1764705882353, %, 21.1764705882353, %
02-27-2009 11:10:52.312, Oxygen Sensor Output Voltage (Bank 1, Sensor 1), 0.885, V, 0.885, V
02-27-2009 11:10:52.328, Short Term Fuel Trim (Bank 1, Sensor 1), 3.90625, %, 3.90625, %
02-27-2009 11:10:52.515, Oxygen Sensor Output Voltage (Bank 1, Sensor 2), 0.84, V, 0.84, V
02-27-2009 11:10:52.515, Short Term Fuel Trim (Bank 1, Sensor 2), NOT USED, %, NOT USED, %
02-27-2009 11:10:52.703, Distance Traveled While MIL is Activated, , miles, , km
02-27-2009 11:10:52.890, Fuel System 1 Status, Closed Loop: Using oxygen sensor(s) as feedback for fuel control., OL/CL, CL, OL/CL
02-27-2009 11:10:52.890, Fuel System 2 Status, , OL/CL, , OL/CL
02-27-2009 11:10:53.078, Calculated Load Value, 19.22, %, 19.22, %
02-27-2009 11:10:53.296, Engine Coolant Temperature, 217.4, deg F, 103, deg C
02-27-2009 11:10:53.484, Short Term Fuel Trim (Bank 1), 2.34375, %, 2.34375, %
02-27-2009 11:10:53.671, Long Term Fuel Trim (Bank 1), -9.375, %, -9.375, %
02-27-2009 11:10:53.875, Intake Manifold Absolute Pressure, 4.20289855072464, psi, 29, kPa
02-27-2009 11:10:54.062, Engine RPM, 862.75, rpm, 862.75, rpm
02-27-2009 11:10:54.250, Vehicle Speed Sensor, 10.625, mph, 17, km/h
02-27-2009 11:10:54.453, Ignition Timing Advance for #1 Cylinder, -14, deg, -14, deg
02-27-2009 11:10:54.656, Intake Air Temperature, 66.2, deg F, 19, deg C
02-27-2009 11:10:54.828, Absolute Throttle Position, 88.2352941176471, %, 88.2352941176471, %
02-27-2009 11:10:55.031, Oxygen Sensor Output Voltage (Bank 1, Sensor 1), 0.965, V, 0.965, V
02-27-2009 11:10:55.046, Short Term Fuel Trim (Bank 1, Sensor 1), 14.0625, %, 14.0625, %
02-27-2009 11:10:55.234, Oxygen Sensor Output Voltage (Bank 1, Sensor 2), 0.95, V, 0.95, V
02-27-2009 11:10:55.234, Short Term Fuel Trim (Bank 1, Sensor 2), NOT USED, %, NOT USED, %
02-27-2009 11:10:55.421, Distance Traveled While MIL is Activated, , miles, , km
02-27-2009 11:10:55.609, Fuel System 1 Status, OL-Drive: Open loop due to driving conditions. (e.g., power enrichment, deceleration enleanment), OL/CL, OL-Drive, OL/CL
02-27-2009 11:10:55.609, Fuel System 2 Status, , OL/CL, , OL/CL
02-27-2009 11:10:55.796, Calculated Load Value, 100, %, 100, %
02-27-2009 11:10:56.000, Engine Coolant Temperature, 217.4, deg F, 103, deg C
02-27-2009 11:10:56.203, Short Term Fuel Trim (Bank 1), 14.84375, %, 14.84375, %
02-27-2009 11:10:56.390, Long Term Fuel Trim (Bank 1), -2.34375, %, -2.34375, %
02-27-2009 11:10:56.578, Intake Manifold Absolute Pressure, 15.0724637681159, psi, 104, kPa
02-27-2009 11:10:56.765, Engine RPM, 1194.25, rpm, 1194.25, rpm
02-27-2009 11:10:56.968, Vehicle Speed Sensor, 15, mph, 24, km/h
02-27-2009 11:10:57.156, Ignition Timing Advance for #1 Cylinder, 0.5, deg, 0.5, deg
02-27-2009 11:10:57.359, Intake Air Temperature, 66.2, deg F, 19, deg C
02-27-2009 11:10:57.546, Absolute Throttle Position, 88.6274509803922, %, 88.6274509803922, %
02-27-2009 11:10:57.734, Oxygen Sensor Output Voltage (Bank 1, Sensor 1), 0.93, V, 0.93, V
02-27-2009 11:10:57.750, Short Term Fuel Trim (Bank 1, Sensor 1), 15.625, %, 15.625, %
02-27-2009 11:10:57.953, Oxygen Sensor Output Voltage (Bank 1, Sensor 2), 0.925, V, 0.925, V
02-27-2009 11:10:57.953, Short Term Fuel Trim (Bank 1, Sensor 2), NOT USED, %, NOT USED, %
02-27-2009 11:10:58.140, Distance Traveled While MIL is Activated, , miles, , km
02-27-2009 11:10:58.328, Fuel System 1 Status, OL-Drive: Open loop due to driving conditions. (e.g., power enrichment, deceleration enleanment), OL/CL, OL-Drive, OL/CL
02-27-2009 11:10:58.328, Fuel System 2 Status, , OL/CL, , OL/CL
02-27-2009 11:10:58.531, Calculated Load Value, 100, %, 100, %
02-27-2009 11:10:58.734, Engine Coolant Temperature, 217.4, deg F, 103, deg C
02-27-2009 11:10:58.921, Short Term Fuel Trim (Bank 1), 17.1875, %, 17.1875, %
02-27-2009 11:10:59.109, Long Term Fuel Trim (Bank 1), -2.34375, %, -2.34375, %
02-27-2009 11:10:59.328, Intake Manifold Absolute Pressure, 14.9275362318841, psi, 103, kPa
02-27-2009 11:10:59.531, Engine RPM, 1738.75, rpm, 1738.75, rpm
02-27-2009 11:10:59.718, Vehicle Speed Sensor, 22.5, mph, 36, km/h
02-27-2009 11:10:59.921, Ignition Timing Advance for #1 Cylinder, 1, deg, 1, deg
02-27-2009 11:11:00.125, Intake Air Temperature, 64.4, deg F, 18, deg C
02-27-2009 11:11:00.312, Absolute Throttle Position, 88.6274509803922, %, 88.6274509803922, %
02-27-2009 11:11:00.500, Oxygen Sensor Output Voltage (Bank 1, Sensor 1), 0.93, V, 0.93, V
02-27-2009 11:11:00.515, Short Term Fuel Trim (Bank 1, Sensor 1), 15.625, %, 15.625, %
02-27-2009 11:11:00.703, Oxygen Sensor Output Voltage (Bank 1, Sensor 2), 0.945, V, 0.945, V
02-27-2009 11:11:00.703, Short Term Fuel Trim (Bank 1, Sensor 2), NOT USED, %, NOT USED, %
02-27-2009 11:11:00.906, Distance Traveled While MIL is Activated, , miles, , km
02-27-2009 11:11:01.093, Fuel System 1 Status, OL-Drive: Open loop due to driving conditions. (e.g., power enrichment, deceleration enleanment), OL/CL, OL-Drive, OL/CL
02-27-2009 11:11:01.109, Fuel System 2 Status, , OL/CL, , OL/CL
02-27-2009 11:11:01.296, Calculated Load Value, 100, %, 100, %
02-27-2009 11:11:01.484, Engine Coolant Temperature, 217.4, deg F, 103, deg C
02-27-2009 11:11:01.687, Short Term Fuel Trim (Bank 1), 14.84375, %, 14.84375, %
02-27-2009 11:11:01.875, Long Term Fuel Trim (Bank 1), -3.90625, %, -3.90625, %
02-27-2009 11:11:02.078, Intake Manifold Absolute Pressure, 14.6376811594203, psi, 101, kPa
02-27-2009 11:11:02.250, Engine RPM, 2257.5, rpm, 2257.5, rpm
02-27-2009 11:11:02.390, Vehicle Speed Sensor, 29.375, mph, 47, km/h
02-27-2009 11:11:02.609, Ignition Timing Advance for #1 Cylinder, 15, deg, 15, deg
02-27-2009 11:11:02.796, Intake Air Temperature, 64.4, deg F, 18, deg C
02-27-2009 11:11:02.984, Absolute Throttle Position, 21.1764705882353, %, 21.1764705882353, %
02-27-2009 11:11:03.171, Oxygen Sensor Output Voltage (Bank 1, Sensor 1), 0.95, V, 0.95, V
02-27-2009 11:11:03.187, Short Term Fuel Trim (Bank 1, Sensor 1), 6.25, %, 6.25, %
02-27-2009 11:11:03.375, Oxygen Sensor Output Voltage (Bank 1, Sensor 2), 0.975, V, 0.975, V
02-27-2009 11:11:03.375, Short Term Fuel Trim (Bank 1, Sensor 2), NOT USED, %, NOT USED, %
02-27-2009 11:11:03.578, Distance Traveled While MIL is Activated, , miles, , km
02-27-2009 11:11:03.765, Fuel System 1 Status, Closed Loop: Using oxygen sensor(s) as feedback for fuel control., OL/CL, CL, OL/CL
02-27-2009 11:11:03.765, Fuel System 2 Status, , OL/CL, , OL/CL
02-27-2009 11:11:03.953, Calculated Load Value, 16.47, %, 16.47, %
02-27-2009 11:11:04.156, Engine Coolant Temperature, 219.2, deg F, 104, deg C
02-27-2009 11:11:04.359, Short Term Fuel Trim (Bank 1), 1.5625, %, 1.5625, %
02-27-2009 11:11:04.546, Long Term Fuel Trim (Bank 1), -2.34375, %, -2.34375, %
02-27-2009 11:11:04.750, Intake Manifold Absolute Pressure, 3.6231884057971, psi, 25, kPa
02-27-2009 11:11:04.937, Engine RPM, 1428.75, rpm, 1428.75, rpm
02-27-2009 11:11:05.125, Vehicle Speed Sensor, 27.5, mph, 44, km/h
02-27-2009 11:11:05.312, Ignition Timing Advance for #1 Cylinder, 8.5, deg, 8.5, deg
02-27-2009 11:11:05.531, Intake Air Temperature, 64.4, deg F, 18, deg C
02-27-2009 11:11:05.718, Absolute Throttle Position, 21.1764705882353, %, 21.1764705882353, %
02-27-2009 11:11:05.890, Oxygen Sensor Output Voltage (Bank 1, Sensor 1), 0.155, V, 0.155, V
02-27-2009 11:11:05.906, Short Term Fuel Trim (Bank 1, Sensor 1), 3.125, %, 3.125, %
02-27-2009 11:11:06.109, Oxygen Sensor Output Voltage (Bank 1, Sensor 2), 0.875, V, 0.875, V
02-27-2009 11:11:06.109, Short Term Fuel Trim (Bank 1, Sensor 2), NOT USED, %, NOT USED, %
02-27-2009 11:11:06.312, Distance Traveled While MIL is Activated, , miles, , km
02-27-2009 11:11:06.500, Fuel System 1 Status, Closed Loop: Using oxygen sensor(s) as feedback for fuel control., OL/CL, CL, OL/CL
02-27-2009 11:11:06.515, Fuel System 2 Status, , OL/CL, , OL/CL
02-27-2009 11:11:06.687, Calculated Load Value, 16.86, %, 16.86, %
02-27-2009 11:11:06.890, Engine Coolant Temperature, 219.2, deg F, 104, deg C
02-27-2009 11:11:07.078, Short Term Fuel Trim (Bank 1), -0.78125, %, -0.78125, %
02-27-2009 11:11:07.281, Long Term Fuel Trim (Bank 1), -9.375, %, -9.375, %
02-27-2009 11:11:07.468, Intake Manifold Absolute Pressure, 3.91304347826087, psi, 27, kPa
02-27-2009 11:11:07.656, Engine RPM, 910.25, rpm, 910.25, rpm
02-27-2009 11:11:07.859, Vehicle Speed Sensor, 23.125, mph, 37, km/h
02-27-2009 11:11:08.062, Ignition Timing Advance for #1 Cylinder, 25, deg, 25, deg
02-27-2009 11:11:08.250, Intake Air Temperature, 64.4, deg F, 18, deg C
02-27-2009 11:11:08.453, Absolute Throttle Position, 21.1764705882353, %, 21.1764705882353, %
02-27-2009 11:11:08.625, Oxygen Sensor Output Voltage (Bank 1, Sensor 1), 0.855, V, 0.855, V
02-27-2009 11:11:08.640, Short Term Fuel Trim (Bank 1, Sensor 1), -2.34375, %, -2.34375, %
02-27-2009 11:11:08.843, Oxygen Sensor Output Voltage (Bank 1, Sensor 2), 0.86, V, 0.86, V
02-27-2009 11:11:08.843, Short Term Fuel Trim (Bank 1, Sensor 2), NOT USED, %, NOT USED, %
02-27-2009 11:11:09.015, Distance Traveled While MIL is Activated, , miles, , km
02-27-2009 11:11:09.140, Fuel System 1 Status, Closed Loop: Using oxygen sensor(s) as feedback for fuel control., OL/CL, CL, OL/CL
02-27-2009 11:11:09.140, Fuel System 2 Status, , OL/CL, , OL/CL
02-27-2009 11:11:09.343, Calculated Load Value, 18.43, %, 18.43, %
02-27-2009 11:11:09.546, Engine Coolant Temperature, 221, deg F, 105, deg C
02-27-2009 11:11:09.734, Short Term Fuel Trim (Bank 1), -3.90625, %, -3.90625, %
02-27-2009 11:11:09.875, Long Term Fuel Trim (Bank 1), -9.375, %, -9.375, %
02-27-2009 11:11:10.078, Intake Manifold Absolute Pressure, 4.20289855072464, psi, 29, kPa
02-27-2009 11:11:10.265, Engine RPM, 883.25, rpm, 883.25, rpm
02-27-2009 11:11:10.468, Vehicle Speed Sensor, 15.625, mph, 25, km/h
02-27-2009 11:11:10.656, Ignition Timing Advance for #1 Cylinder, 25, deg, 25, deg
02-27-2009 11:11:10.859, Intake Air Temperature, 64.4, deg F, 18, deg C
02-27-2009 11:11:11.046, Absolute Throttle Position, 21.1764705882353, %, 21.1764705882353, %
02-27-2009 11:11:11.250, Oxygen Sensor Output Voltage (Bank 1, Sensor 1), 0.33, V, 0.33, V
02-27-2009 11:11:11.265, Short Term Fuel Trim (Bank 1, Sensor 1), -4.6875, %, -4.6875, %
02-27-2009 11:11:11.437, Oxygen Sensor Output Voltage (Bank 1, Sensor 2), 0.85, V, 0.85, V
02-27-2009 11:11:11.437, Short Term Fuel Trim (Bank 1, Sensor 2), NOT USED, %, NOT USED, %
02-27-2009 11:11:11.578, Distance Traveled While MIL is Activated, , miles, , km
02-27-2009 11:11:11.765, Fuel System 1 Status, Closed Loop: Using oxygen sensor(s) as feedback for fuel control., OL/CL, CL, OL/CL
02-27-2009 11:11:11.765, Fuel System 2 Status, , OL/CL, , OL/CL
02-27-2009 11:11:11.906, Calculated Load Value, 18.04, %, 18.04, %
lindleypoolman is offline  
    Reply With Quote
Old 02-27-2009, 01:09 AM   #14
lindleypoolman
Focus Rookie
 
Join Date: Feb 2009
Fan#: 62924
Location: Doncaster
What I Drive: 2001 Blue Focus CL

Posts: 10
FF Reputation: 1 lindleypoolman Good Standing Member
Buy-Sell-Trade Rating: (0)
02-27-2009 11:11:12.125, Engine Coolant Temperature, 221, deg F, 105, deg C
02-27-2009 11:11:12.312, Short Term Fuel Trim (Bank 1), -1.5625, %, -1.5625, %
02-27-2009 11:11:12.515, Long Term Fuel Trim (Bank 1), -9.375, %, -9.375, %
02-27-2009 11:11:12.703, Intake Manifold Absolute Pressure, 3.91304347826087, psi, 27, kPa
02-27-2009 11:11:12.906, Engine RPM, 889.5, rpm, 889.5, rpm
02-27-2009 11:11:13.093, Vehicle Speed Sensor, 15, mph, 24, km/h
02-27-2009 11:11:13.296, Ignition Timing Advance for #1 Cylinder, 0, deg, 0, deg
02-27-2009 11:11:13.484, Intake Air Temperature, 66.2, deg F, 19, deg C
02-27-2009 11:11:13.687, Absolute Throttle Position, 87.4509803921569, %, 87.4509803921569, %
02-27-2009 11:11:13.875, Oxygen Sensor Output Voltage (Bank 1, Sensor 1), 0.95, V, 0.95, V
02-27-2009 11:11:13.890, Short Term Fuel Trim (Bank 1, Sensor 1), 14.0625, %, 14.0625, %
02-27-2009 11:11:14.062, Oxygen Sensor Output Voltage (Bank 1, Sensor 2), 0.965, V, 0.965, V
02-27-2009 11:11:14.078, Short Term Fuel Trim (Bank 1, Sensor 2), NOT USED, %, NOT USED, %
02-27-2009 11:11:14.265, Distance Traveled While MIL is Activated, , miles, , km
02-27-2009 11:11:14.453, Fuel System 1 Status, OL-Drive: Open loop due to driving conditions. (e.g., power enrichment, deceleration enleanment), OL/CL, OL-Drive, OL/CL
02-27-2009 11:11:14.453, Fuel System 2 Status, , OL/CL, , OL/CL
02-27-2009 11:11:14.640, Calculated Load Value, 100, %, 100, %
02-27-2009 11:11:14.859, Engine Coolant Temperature, 221, deg F, 105, deg C
02-27-2009 11:11:15.046, Short Term Fuel Trim (Bank 1), 14.84375, %, 14.84375, %
02-27-2009 11:11:15.234, Long Term Fuel Trim (Bank 1), -2.34375, %, -2.34375, %
02-27-2009 11:11:15.421, Intake Manifold Absolute Pressure, 14.7826086956522, psi, 102, kPa
02-27-2009 11:11:15.625, Engine RPM, 1032.75, rpm, 1032.75, rpm
02-27-2009 11:11:15.812, Vehicle Speed Sensor, 18.125, mph, 29, km/h
02-27-2009 11:11:16.000, Ignition Timing Advance for #1 Cylinder, -2.5, deg, -2.5, deg
02-27-2009 11:11:16.218, Intake Air Temperature, 66.2, deg F, 19, deg C
02-27-2009 11:11:16.406, Absolute Throttle Position, 88.2352941176471, %, 88.2352941176471, %
02-27-2009 11:11:16.593, Oxygen Sensor Output Voltage (Bank 1, Sensor 1), 0.92, V, 0.92, V
02-27-2009 11:11:16.609, Short Term Fuel Trim (Bank 1, Sensor 1), 14.84375, %, 14.84375, %
02-27-2009 11:11:16.781, Oxygen Sensor Output Voltage (Bank 1, Sensor 2), 0.935, V, 0.935, V
02-27-2009 11:11:16.796, Short Term Fuel Trim (Bank 1, Sensor 2), NOT USED, %, NOT USED, %
02-27-2009 11:11:16.984, Distance Traveled While MIL is Activated, , miles, , km
02-27-2009 11:11:17.171, Fuel System 1 Status, OL-Drive: Open loop due to driving conditions. (e.g., power enrichment, deceleration enleanment), OL/CL, OL-Drive, OL/CL
02-27-2009 11:11:17.171, Fuel System 2 Status, , OL/CL, , OL/CL
02-27-2009 11:11:17.375, Calculated Load Value, 100, %, 100, %
02-27-2009 11:11:17.578, Engine Coolant Temperature, 221, deg F, 105, deg C
02-27-2009 11:11:17.765, Short Term Fuel Trim (Bank 1), 15.625, %, 15.625, %
02-27-2009 11:11:17.937, Long Term Fuel Trim (Bank 1), -2.34375, %, -2.34375, %
02-27-2009 11:11:18.140, Intake Manifold Absolute Pressure, 14.7826086956522, psi, 102, kPa
02-27-2009 11:11:18.343, Engine RPM, 1288, rpm, 1288, rpm
02-27-2009 11:11:18.531, Vehicle Speed Sensor, 23.125, mph, 37, km/h
02-27-2009 11:11:18.734, Ignition Timing Advance for #1 Cylinder, 0, deg, 0, deg
02-27-2009 11:11:18.937, Intake Air Temperature, 66.2, deg F, 19, deg C
02-27-2009 11:11:19.125, Absolute Throttle Position, 21.5686274509804, %, 21.5686274509804, %
02-27-2009 11:11:19.312, Oxygen Sensor Output Voltage (Bank 1, Sensor 1), 0.945, V, 0.945, V
02-27-2009 11:11:19.312, Short Term Fuel Trim (Bank 1, Sensor 1), 12.5, %, 12.5, %
02-27-2009 11:11:19.515, Oxygen Sensor Output Voltage (Bank 1, Sensor 2), 0.96, V, 0.96, V
02-27-2009 11:11:19.515, Short Term Fuel Trim (Bank 1, Sensor 2), NOT USED, %, NOT USED, %
02-27-2009 11:11:19.718, Distance Traveled While MIL is Activated, , miles, , km
02-27-2009 11:11:19.906, Fuel System 1 Status, Closed Loop: Using oxygen sensor(s) as feedback for fuel control., OL/CL, CL, OL/CL
02-27-2009 11:11:19.906, Fuel System 2 Status, , OL/CL, , OL/CL
02-27-2009 11:11:20.093, Calculated Load Value, 18.82, %, 18.82, %
02-27-2009 11:11:20.296, Engine Coolant Temperature, 221, deg F, 105, deg C
02-27-2009 11:11:20.484, Short Term Fuel Trim (Bank 1), 5.46875, %, 5.46875, %
02-27-2009 11:11:20.687, Long Term Fuel Trim (Bank 1), -7.03125, %, -7.03125, %
02-27-2009 11:11:20.890, Intake Manifold Absolute Pressure, 3.76811594202899, psi, 26, kPa
02-27-2009 11:11:21.078, Engine RPM, 1102.25, rpm, 1102.25, rpm
02-27-2009 11:11:21.265, Vehicle Speed Sensor, 18.75, mph, 30, km/h
02-27-2009 11:11:21.453, Ignition Timing Advance for #1 Cylinder, 25, deg, 25, deg
02-27-2009 11:11:21.656, Intake Air Temperature, 64.4, deg F, 18, deg C
02-27-2009 11:11:21.859, Absolute Throttle Position, 21.1764705882353, %, 21.1764705882353, %
02-27-2009 11:11:22.031, Oxygen Sensor Output Voltage (Bank 1, Sensor 1), 0.89, V, 0.89, V
02-27-2009 11:11:22.046, Short Term Fuel Trim (Bank 1, Sensor 1), 1.5625, %, 1.5625, %
02-27-2009 11:11:22.250, Oxygen Sensor Output Voltage (Bank 1, Sensor 2), 0.905, V, 0.905, V
02-27-2009 11:11:22.250, Short Term Fuel Trim (Bank 1, Sensor 2), NOT USED, %, NOT USED, %
02-27-2009 11:11:22.421, Distance Traveled While MIL is Activated, , miles, , km
02-27-2009 11:11:22.546, Fuel System 1 Status, Closed Loop: Using oxygen sensor(s) as feedback for fuel control., OL/CL, CL, OL/CL
02-27-2009 11:11:22.546, Fuel System 2 Status, , OL/CL, , OL/CL
02-27-2009 11:11:22.734, Calculated Load Value, 20.78, %, 20.78, %
02-27-2009 11:11:22.937, Engine Coolant Temperature, 221, deg F, 105, deg C
02-27-2009 11:11:23.062, Short Term Fuel Trim (Bank 1), 0, %, 0, %
02-27-2009 11:11:23.203, Long Term Fuel Trim (Bank 1), -9.375, %, -9.375, %
02-27-2009 11:11:23.390, Intake Manifold Absolute Pressure, 4.34782608695652, psi, 30, kPa
02-27-2009 11:11:23.593, Engine RPM, 785.5, rpm, 785.5, rpm
02-27-2009 11:11:23.781, Vehicle Speed Sensor, 13.125, mph, 21, km/h
02-27-2009 11:11:23.968, Ignition Timing Advance for #1 Cylinder, 25, deg, 25, deg
02-27-2009 11:11:24.156, Intake Air Temperature, 66.2, deg F, 19, deg C
02-27-2009 11:11:24.359, Absolute Throttle Position, 70.9803921568627, %, 70.9803921568627, %
02-27-2009 11:11:24.546, Oxygen Sensor Output Voltage (Bank 1, Sensor 1), 0.89, V, 0.89, V
02-27-2009 11:11:24.546, Short Term Fuel Trim (Bank 1, Sensor 1), 14.0625, %, 14.0625, %
02-27-2009 11:11:24.734, Oxygen Sensor Output Voltage (Bank 1, Sensor 2), 0.87, V, 0.87, V
02-27-2009 11:11:24.750, Short Term Fuel Trim (Bank 1, Sensor 2), NOT USED, %, NOT USED, %
02-27-2009 11:11:24.953, Distance Traveled While MIL is Activated, , miles, , km
02-27-2009 11:11:25.140, Fuel System 1 Status, OL-Drive: Open loop due to driving conditions. (e.g., power enrichment, deceleration enleanment), OL/CL, OL-Drive, OL/CL
02-27-2009 11:11:25.156, Fuel System 2 Status, , OL/CL, , OL/CL
02-27-2009 11:11:25.328, Calculated Load Value, 99.61, %, 99.61, %
02-27-2009 11:11:25.515, Engine Coolant Temperature, 221, deg F, 105, deg C
02-27-2009 11:11:25.734, Short Term Fuel Trim (Bank 1), 14.0625, %, 14.0625, %
02-27-2009 11:11:25.921, Long Term Fuel Trim (Bank 1), -2.34375, %, -2.34375, %
02-27-2009 11:11:26.125, Intake Manifold Absolute Pressure, 14.7826086956522, psi, 102, kPa
02-27-2009 11:11:26.312, Engine RPM, 942.5, rpm, 942.5, rpm
02-27-2009 11:11:26.515, Vehicle Speed Sensor, 16.25, mph, 26, km/h
02-27-2009 11:11:26.703, Ignition Timing Advance for #1 Cylinder, -3, deg, -3, deg
02-27-2009 11:11:26.890, Intake Air Temperature, 66.2, deg F, 19, deg C
02-27-2009 11:11:27.093, Absolute Throttle Position, 87.843137254902, %, 87.843137254902, %
02-27-2009 11:11:27.281, Oxygen Sensor Output Voltage (Bank 1, Sensor 1), 0.88, V, 0.88, V
02-27-2009 11:11:27.281, Short Term Fuel Trim (Bank 1, Sensor 1), 14.84375, %, 14.84375, %
02-27-2009 11:11:27.484, Oxygen Sensor Output Voltage (Bank 1, Sensor 2), 0.865, V, 0.865, V
02-27-2009 11:11:27.500, Short Term Fuel Trim (Bank 1, Sensor 2), NOT USED, %, NOT USED, %
02-27-2009 11:11:27.687, Distance Traveled While MIL is Activated, , miles, , km
02-27-2009 11:11:27.875, Fuel System 1 Status, OL-Drive: Open loop due to driving conditions. (e.g., power enrichment, deceleration enleanment), OL/CL, OL-Drive, OL/CL
02-27-2009 11:11:27.875, Fuel System 2 Status, , OL/CL, , OL/CL
02-27-2009 11:11:28.062, Calculated Load Value, 100, %, 100, %
02-27-2009 11:11:28.250, Engine Coolant Temperature, 221, deg F, 105, deg C
02-27-2009 11:11:28.453, Short Term Fuel Trim (Bank 1), 14.84375, %, 14.84375, %
02-27-2009 11:11:28.640, Long Term Fuel Trim (Bank 1), -2.34375, %, -2.34375, %
02-27-2009 11:11:28.843, Intake Manifold Absolute Pressure, 14.7826086956522, psi, 102, kPa
02-27-2009 11:11:29.046, Engine RPM, 1134.75, rpm, 1134.75, rpm
02-27-2009 11:11:29.234, Vehicle Speed Sensor, 19.375, mph, 31, km/h
02-27-2009 11:11:29.421, Ignition Timing Advance for #1 Cylinder, 1, deg, 1, deg
02-27-2009 11:11:29.625, Intake Air Temperature, 66.2, deg F, 19, deg C
02-27-2009 11:11:29.828, Absolute Throttle Position, 87.843137254902, %, 87.84313725490
lindleypoolman is offline  
    Reply With Quote
Old 02-27-2009, 01:09 AM   #15
lindleypoolman
Focus Rookie
 
Join Date: Feb 2009
Fan#: 62924
Location: Doncaster
What I Drive: 2001 Blue Focus CL

Posts: 10
FF Reputation: 1 lindleypoolman Good Standing Member
Buy-Sell-Trade Rating: (0)
02-27-2009 11:11:30.015, Oxygen Sensor Output Voltage (Bank 1, Sensor 1), 0.92, V, 0.92, V
02-27-2009 11:11:30.015, Short Term Fuel Trim (Bank 1, Sensor 1), 15.625, %, 15.625, %
02-27-2009 11:11:30.203, Oxygen Sensor Output Voltage (Bank 1, Sensor 2), 0.935, V, 0.935, V
02-27-2009 11:11:30.218, Short Term Fuel Trim (Bank 1, Sensor 2), NOT USED, %, NOT USED, %
02-27-2009 11:11:30.406, Distance Traveled While MIL is Activated, , miles, , km
02-27-2009 11:11:30.593, Fuel System 1 Status, OL-Drive: Open loop due to driving conditions. (e.g., power enrichment, deceleration enleanment), OL/CL, OL-Drive, OL/CL
02-27-2009 11:11:30.593, Fuel System 2 Status, , OL/CL, , OL/CL
02-27-2009 11:11:30.796, Calculated Load Value, 100, %, 100, %
02-27-2009 11:11:30.984, Engine Coolant Temperature, 221, deg F, 105, deg C
02-27-2009 11:11:31.187, Short Term Fuel Trim (Bank 1), 15.625, %, 15.625, %
02-27-2009 11:11:31.375, Long Term Fuel Trim (Bank 1), -2.34375, %, -2.34375, %
02-27-2009 11:11:31.562, Intake Manifold Absolute Pressure, 14.7826086956522, psi, 102, kPa
02-27-2009 11:11:31.765, Engine RPM, 1365.25, rpm, 1365.25, rpm
02-27-2009 11:11:31.953, Vehicle Speed Sensor, 23.75, mph, 38, km/h
02-27-2009 11:11:32.140, Ignition Timing Advance for #1 Cylinder, 1, deg, 1, deg
02-27-2009 11:11:32.359, Intake Air Temperature, 64.4, deg F, 18, deg C
02-27-2009 11:11:32.546, Absolute Throttle Position, 85.4901960784314, %, 85.4901960784314, %
02-27-2009 11:11:32.734, Oxygen Sensor Output Voltage (Bank 1, Sensor 1), 0.91, V, 0.91, V
02-27-2009 11:11:32.734, Short Term Fuel Trim (Bank 1, Sensor 1), 15.625, %, 15.625, %
02-27-2009 11:11:32.921, Oxygen Sensor Output Voltage (Bank 1, Sensor 2), 0.94, V, 0.94, V
02-27-2009 11:11:32.937, Short Term Fuel Trim (Bank 1, Sensor 2), NOT USED, %, NOT USED, %
02-27-2009 11:11:33.125, Distance Traveled While MIL is Activated, , miles, , km
02-27-2009 11:11:33.328, Fuel System 1 Status, Closed Loop: Using oxygen sensor(s) as feedback for fuel control., OL/CL, CL, OL/CL
02-27-2009 11:11:33.328, Fuel System 2 Status, , OL/CL, , OL/CL
02-27-2009 11:11:33.515, Calculated Load Value, 100, %, 100, %
02-27-2009 11:11:33.718, Engine Coolant Temperature, 221, deg F, 105, deg C
02-27-2009 11:11:33.890, Short Term Fuel Trim (Bank 1), 5.46875, %, 5.46875, %
02-27-2009 11:11:34.093, Long Term Fuel Trim (Bank 1), -3.90625, %, -3.90625, %
02-27-2009 11:11:34.281, Intake Manifold Absolute Pressure, 3.6231884057971, psi, 25, kPa
02-27-2009 11:11:34.484, Engine RPM, 1963.75, rpm, 1963.75, rpm
02-27-2009 11:11:34.671, Vehicle Speed Sensor, 26.25, mph, 42, km/h
02-27-2009 11:11:34.859, Ignition Timing Advance for #1 Cylinder, 20, deg, 20, deg
02-27-2009 11:11:35.078, Intake Air Temperature, 64.4, deg F, 18, deg C
02-27-2009 11:11:35.250, Absolute Throttle Position, 21.1764705882353, %, 21.1764705882353, %
02-27-2009 11:11:35.390, Oxygen Sensor Output Voltage (Bank 1, Sensor 1), 0.88, V, 0.88, V
02-27-2009 11:11:35.390, Short Term Fuel Trim (Bank 1, Sensor 1), 0.78125, %, 0.78125, %
02-27-2009 11:11:35.578, Oxygen Sensor Output Voltage (Bank 1, Sensor 2), 0.945, V, 0.945, V
02-27-2009 11:11:35.593, Short Term Fuel Trim (Bank 1, Sensor 2), NOT USED, %, NOT USED, %
02-27-2009 11:11:35.781, Distance Traveled While MIL is Activated, , miles, , km
02-27-2009 11:11:35.968, Fuel System 1 Status, Closed Loop: Using oxygen sensor(s) as feedback for fuel control., OL/CL, CL, OL/CL
02-27-2009 11:11:35.968, Fuel System 2 Status, , OL/CL, , OL/CL
02-27-2009 11:11:36.156, Calculated Load Value, 20.78, %, 20.78, %
02-27-2009 11:11:36.359, Engine Coolant Temperature, 222.8, deg F, 106, deg C
02-27-2009 11:11:36.562, Short Term Fuel Trim (Bank 1), 0, %, 0, %
02-27-2009 11:11:36.750, Long Term Fuel Trim (Bank 1), -8.59375, %, -8.59375, %
02-27-2009 11:11:36.937, Intake Manifold Absolute Pressure, 4.05797101449275, psi, 28, kPa
02-27-2009 11:11:37.140, Engine RPM, 1006.5, rpm, 1006.5, rpm
02-27-2009 11:11:37.328, Vehicle Speed Sensor, 9.375, mph, 15, km/h
02-27-2009 11:11:37.515, Ignition Timing Advance for #1 Cylinder, 25, deg, 25, deg
02-27-2009 11:11:37.703, Intake Air Temperature, 64.4, deg F, 18, deg C
02-27-2009 11:11:37.906, Absolute Throttle Position, 21.1764705882353, %, 21.1764705882353, %
02-27-2009 11:11:38.109, Oxygen Sensor Output Voltage (Bank 1, Sensor 1), 0.89, V, 0.89, V
02-27-2009 11:11:38.109, Short Term Fuel Trim (Bank 1, Sensor 1), -1.5625, %, -1.5625, %
02-27-2009 11:11:38.281, Oxygen Sensor Output Voltage (Bank 1, Sensor 2), 0.885, V, 0.885, V
02-27-2009 11:11:38.296, Short Term Fuel Trim (Bank 1, Sensor 2), NOT USED, %, NOT USED, %
02-27-2009 11:11:38.500, Distance Traveled While MIL is Activated, , miles, , km
02-27-2009 11:11:38.687, Fuel System 1 Status, Closed Loop: Using oxygen sensor(s) as feedback for fuel control., OL/CL, CL, OL/CL
02-27-2009 11:11:38.687, Fuel System 2 Status, , OL/CL, , OL/CL
02-27-2009 11:11:38.875, Calculated Load Value, 19.61, %, 19.61, %
02-27-2009 11:11:39.062, Engine Coolant Temperature, 222.8, deg F, 106, deg C
02-27-2009 11:11:39.265, Short Term Fuel Trim (Bank 1), -0.78125, %, -0.78125, %
02-27-2009 11:11:39.468, Long Term Fuel Trim (Bank 1), 3.90625, %, 3.90625, %
02-27-2009 11:11:39.640, Intake Manifold Absolute Pressure, 4.49275362318841, psi, 31, kPa
02-27-2009 11:11:39.859, Engine RPM, 690.75, rpm, 690.75, rpm
02-27-2009 11:11:40.046, Vehicle Speed Sensor, 0, mph, 0, km/h
02-27-2009 11:11:40.234, Ignition Timing Advance for #1 Cylinder, 20, deg, 20, deg
02-27-2009 11:11:40.437, Intake Air Temperature, 64.4, deg F, 18, deg C
02-27-2009 11:11:40.625, Absolute Throttle Position, 21.1764705882353, %, 21.1764705882353, %
02-27-2009 11:11:40.812, Oxygen Sensor Output Voltage (Bank 1, Sensor 1), 0.92, V, 0.92, V
02-27-2009 11:11:40.812, Short Term Fuel Trim (Bank 1, Sensor 1), -2.34375, %, -2.34375, %
02-27-2009 11:11:41.015, Oxygen Sensor Output Voltage (Bank 1, Sensor 2), 0.915, V, 0.915, V
02-27-2009 11:11:41.031, Short Term Fuel Trim (Bank 1, Sensor 2), NOT USED, %, NOT USED, %
02-27-2009 11:11:41.218, Distance Traveled While MIL is Activated, , miles, , km
02-27-2009 11:11:41.406, Fuel System 1 Status, Closed Loop: Using oxygen sensor(s) as feedback for fuel control., OL/CL, CL, OL/CL
02-27-2009 11:11:41.406, Fuel System 2 Status, , OL/CL, , OL/CL
02-27-2009 11:11:41.593, Calculated Load Value, 20, %, 20, %
02-27-2009 11:11:41.765, Engine Coolant Temperature, 222.8, deg F, 106, deg C
02-27-2009 11:11:41.937, Short Term Fuel Trim (Bank 1), -3.125, %, -3.125, %
02-27-2009 11:11:42.109, Long Term Fuel Trim (Bank 1), 3.90625, %, 3.90625, %
02-27-2009 11:11:42.312, Intake Manifold Absolute Pressure, 4.34782608695652, psi, 30, kPa
02-27-2009 11:11:42.515, Engine RPM, 750, rpm, 750, rpm
02-27-2009 11:11:42.703, Vehicle Speed Sensor, 0, mph, 0, km/h
02-27-2009 11:11:42.890, Ignition Timing Advance for #1 Cylinder, 19.5, deg, 19.5, deg
02-27-2009 11:11:43.078, Intake Air Temperature, 66.2, deg F, 19, deg C
02-27-2009 11:11:43.281, Absolute Throttle Position, 21.1764705882353, %, 21.1764705882353, %
02-27-2009 11:11:43.468, Oxygen Sensor Output Voltage (Bank 1, Sensor 1), 0.91, V, 0.91, V
02-27-2009 11:11:43.468, Short Term Fuel Trim (Bank 1, Sensor 1), -3.90625, %, -3.90625, %
02-27-2009 11:11:43.656, Oxygen Sensor Output Voltage (Bank 1, Sensor 2), 0.915, V, 0.915, V
02-27-2009 11:11:43.656, Short Term Fuel Trim (Bank 1, Sensor 2), NOT USED, %, NOT USED, %
02-27-2009 11:11:43.875, Distance Traveled While MIL is Activated, , miles, , km
02-27-2009 11:11:44.062, Fuel System 1 Status, Closed Loop: Using oxygen sensor(s) as feedback for fuel control., OL/CL, CL, OL/CL
02-27-2009 11:11:44.062, Fuel System 2 Status, , OL/CL, , OL/CL
02-27-2009 11:11:44.250, Calculated Load Value, 22.35, %, 22.35, %
02-27-2009 11:11:44.437, Engine Coolant Temperature, 222.8, deg F, 106, deg C
02-27-2009 11:11:44.640, Short Term Fuel Trim (Bank 1), -4.6875, %, -4.6875, %
02-27-2009 11:11:44.843, Long Term Fuel Trim (Bank 1), 3.90625, %, 3.90625, %
02-27-2009 11:11:45.015, Intake Manifold Absolute Pressure, 4.34782608695652, psi, 30, kPa
02-27-2009 11:11:45.234, Engine RPM, 734.5, rpm, 734.5, rpm
02-27-2009 11:11:45.421, Vehicle Speed Sensor, 0, mph, 0, km/h
02-27-2009 11:11:45.609, Ignition Timing Advance for #1 Cylinder, 18.5, deg, 18.5, deg
02-27-2009 11:11:45.796, Intake Air Temperature, 66.2, deg F, 19, deg C
02-27-2009 11:11:46.015, Absolute Throttle Position, 21.1764705882353, %, 21.1764705882353, %
02-27-2009 11:11:46.187, Oxygen Sensor Output Voltage (Bank 1, Sensor 1), 0.905, V, 0.905, V
02-27-2009 11:11:46.187, Short Term Fuel Trim (Bank 1, Sensor 1), -6.25, %, -6.25, %
02-27-2009 11:11:46.390, Oxygen Sensor Output Voltage (Bank 1, Sensor 2), 0.91, V, 0.91, V
02-27-2009 11:11:46.406, Short Term Fuel Trim (Bank 1, Sensor 2), NOT USED, %, NOT USED, %
02-27-2009 11:11:46.593, Distance Traveled While MIL is Activated, , miles, , km
02-27-2009 11:11:46.781, Fuel System 1 Status, Closed Loop: Using oxygen sensor(s) as feedback for fuel control., OL/CL, CL, OL/CL
02-27-2009 11:11:46.781, Fuel System 2 Status, , OL/CL, , OL/CL
02-27-2009 11:11:46.968, Calculated Load Value, 21.57, %, 21.57, %
02-27-2009 11:11:47.156, Engine Coolant Temperature, 222.8, deg F, 106, deg C
02-27-2009 11:11:47.359, Short Term Fuel Trim (Bank 1), -7.03125, %, -7.03125, %
02-27-2009 11:11:47.531, Long Term Fuel Trim (Bank 1), 3.90625, %, 3.90625, %
02-27-2009 11:11:47.734, Intake Manifold Absolute Pressure, 4.20289855072464, psi, 29, kPa
02-27-2009 11:11:47.953, Engine RPM, 745.75, rpm, 745.75, rpm
02-27-2009 11:11:48.125, Vehicle Speed Sensor, 0, mph, 0, km/h
02-27-2009 11:11:48.312, Ignition Timing Advance for #1 Cylinder, 15.5, deg, 15.5, deg
02-27-2009 11:11:48.500, Intake Air Temperature, 66.2, deg F, 19, deg C
02-27-2009 11:11:48.703, Absolute Throttle Position, 21.1764705882353, %, 21.1764705882353, %
02-27-2009 11:11:48.890, Oxygen Sensor Output Voltage (Bank 1, Sensor 1), 0.88, V, 0.88, V
02-27-2009 11:11:48.890, Short Term Fuel Trim (Bank 1, Sensor 1), -7.8125, %, -7.8125, %
02-27-2009 11:11:49.093, Oxygen Sensor Output Voltage (Bank 1, Sensor 2), 0.89, V, 0.89, V
02-27-2009 11:11:49.109, Short Term Fuel Trim (Bank 1, Sensor 2), NOT USED, %, NOT USED, %
02-27-2009 11:11:49.296, Distance Traveled While MIL is Activated, , miles, , km
lindleypoolman is offline  
    Reply With Quote
Old 02-28-2009, 03:05 PM   #16
djmontara
Focus Enthusiast
 
djmontara's Avatar
 
Join Date: Sep 2008
Fan#: 59303
Location: Tooting, London, UK
What I Drive: 2003 Ink Blue Focus 1.8 Zetec Ghia

Posts: 324
FF Reputation: 3 djmontara Good Standing Member
Buy-Sell-Trade Rating: (0)
hmm.. im quite stumped to be honest.. sometimes it seems ur running lean... but then other times ur running rich... i dont know why...

maybe some other peeps can chime in??
djmontara is offline  
    Reply With Quote
Old 02-28-2009, 03:07 PM   #17
djmontara
Focus Enthusiast
 
djmontara's Avatar
 
Join Date: Sep 2008
Fan#: 59303
Location: Tooting, London, UK
What I Drive: 2003 Ink Blue Focus 1.8 Zetec Ghia

Posts: 324
FF Reputation: 3 djmontara Good Standing Member
Buy-Sell-Trade Rating: (0)
i think u maay have a sliight vacuum leak somwhere...
djmontara is offline  
    Reply With Quote
Old 03-02-2009, 06:02 PM   #18
djmontara
Focus Enthusiast
 
djmontara's Avatar
 
Join Date: Sep 2008
Fan#: 59303
Location: Tooting, London, UK
What I Drive: 2003 Ink Blue Focus 1.8 Zetec Ghia

Posts: 324
FF Reputation: 3 djmontara Good Standing Member
Buy-Sell-Trade Rating: (0)
how is it goin chris? any luck figuring it out? you may want to ask tom? hes the tuning guru around here.. im sure he'll be able to point u in the right area with all ur data lol! keep me updated! ;)
djmontara is offline  
    Reply With Quote
Old 03-23-2009, 09:54 PM   #19
1turbofocus
FF Affiliate
 
1turbofocus's Avatar
 
Join Date: Oct 2003
Fan#: 1123
Location: Belmont, NC
What I Drive: 2000 ZX3 / 2002 SVT Turbocharged

Posts: 21,769
FF Reputation: 153 1turbofocus Excellent Standing Member 1turbofocus Excellent Standing Member
Buy-Sell-Trade Rating: (28)
I would like to see it graphed , I also see a lot of running lean and didnt see any maf counts , also check your TPS voltage from idle to WOT 2 or 3 times with the engine off key on

Tom
__________________
Focus-Power: Your #1 Source for Ford Focus Speed, Tuning & Performance!

Customer Support
AIM: hpdyno
Email: hpdyno@aol.com
Phone: 704-249-3745
Site: focus-power.com

Elder 1turbofocus
1turbofocus is online now  
    Reply With Quote
Old 03-25-2009, 02:02 AM   #20
lindleypoolman
Focus Rookie
 
Join Date: Feb 2009
Fan#: 62924
Location: Doncaster
What I Drive: 2001 Blue Focus CL

Posts: 10
FF Reputation: 1 lindleypoolman Good Standing Member
Buy-Sell-Trade Rating: (0)
Thanks for your quick reply Tom. I can do some live data graphs but my software only allows four sensors at a time to be monitored How would you like me to group them? There's no MAF sensor on this model. The ECU calculates air flow using a MAP sensor, RPM and air temp. I will also graph TPS data for you.
Thank you Chris.
lindleypoolman is offline  
    Reply With Quote
Reply

Bookmarks & Social Networks
-->
Thread Tools
Display Modes

Posting Rules
You may not post new threads
You may not post replies
You may not post attachments
You may not edit your posts

BB code is On
Smilies are On
[IMG] code is On
HTML code is Off

Forum Jump

Similar Threads
Thread Thread Starter Forum Replies Last Post
For Sale: Random Focus Parts Feral Archive 20 02-24-2009 10:23 PM
Power for Interior Mods skikid89 MK1 Interior Mods & Upgrades 5 01-16-2009 11:17 AM
500w and DVC?? sleepyboy Car Audio, SYNC, MyFord Touch & Electronics 17 09-16-2008 10:04 PM
BMW M3 Convertible Tom Ford Focus & General Car Chat 11 03-23-2008 12:09 PM
if u want a sc then u should read this good info blazealm General Forced Induction 15 01-26-2005 01:37 PM


All times are GMT -5. The time now is 09:07 AM.


Copyright 2002-2014 FocusFanatics.com. All Rights Reserved : Terms of Use : Privacy Policy : Advertise Information

Focus Fanatics Ford Focus Forum offers many fun ways for you to engage with other Ford Focus Owners from across the world. Whether it be about the aftermarket performance modifications, technical how-to's, European tuned suspension or awesome fuel economy similar to the Acura TLX or Fiesta ST. You can find all Ford Focus and Focus ST related information here. Join our Ford Focus discussion forums and chat with local Focus enthusiasts in your area.